MUVR/VRA METAR and TAF weather

Enter ICAO airport designator
Station Type Date Time Source
MUVR METAR 2022/01/29 10:50 UTC NOAA

MUVR 291050Z 34015G25KT 9000 SCT017 20/15 Q1017


Station Type Date Time Source
MUVR Decoded METAR 2022/01/29 10:50 UTC NOAA

Varadero, Matanzas, Cuba (MUVR) 23-08N 081-17W 3M
Jan 29, 2022 - 05:50 AM EST / 2022.01.29 1050 UTC
Wind: from the NNW (340 degrees) at 17 MPH (15 KT) gusting to 29 MPH (25 KT):0
Visibility: 5 mile(s):0
Sky conditions: partly cloudy
Temperature: 68 F (20 C)
Dew Point: 59 F (15 C)
Relative Humidity: 72%
Pressure (altimeter): 30.03 in. Hg (1017 hPa)
ob: MUVR 291050Z 34015G25KT 9000 SCT017 20/15 Q1017
cycle: 11

Station Type Date Time Source
MUVR TAF 2022/01/29 12:00 UTC NOAA

TAF MUVR 291100Z 2912/3012 35012KT 9000 SCT030
TEMPO 2912/2914 5000 SHRA SCT018CB BKN020

Example: see airport list